sensor_id;sensor_type;location;lat;lon;timestamp;temperature;humidity
5848;DHT22;8756;49.29324300;8.70599800;2023-03-14T00:02:06;10.50;99.90
5848;DHT22;8756;49.29324300;8.70599800;2023-03-14T00:04:31;10.50;99.90
5848;DHT22;8756;49.29324300;8.70599800;2023-03-14T00:06:57;10.50;99.90
5848;DHT22;8756;49.29324300;8.70599800;2023-03-14T00:09:23;10.60;99.90
5848;DHT22;8756;49.29324300;8.70599800;2023-03-14T00:11:48;10.60;99.90
5848;DHT22;8756;49.29324300;8.70599800;2023-03-14T00:14:14;10.60;99.90
5848;DHT22;8756;49.29324300;8.70599800;2023-03-14T00:16:42;10.60;99.90
5848;DHT22;8756;49.29324300;8.70599800;2023-03-14T00:19:11;10.60;99.90
5848;DHT22;8756;49.29324300;8.70599800;2023-03-14T00:21:37;10.60;99.90
5848;DHT22;8756;49.29324300;8.70599800;2023-03-14T00:24:03;10.70;99.90
5848;DHT22;8756;49.29324300;8.70599800;2023-03-14T00:26:29;10.70;99.90
5848;DHT22;8756;49.29324300;8.70599800;2023-03-14T00:28:54;10.70;99.90
5848;DHT22;8756;49.29324300;8.70599800;2023-03-14T00:31:21;10.70;99.90
5848;DHT22;8756;49.29324300;8.70599800;2023-03-14T00:33:47;10.70;99.90
5848;DHT22;8756;49.29324300;8.70599800;2023-03-14T00:36:15;10.70;99.90
5848;DHT22;8756;49.29324300;8.70599800;2023-03-14T00:38:43;10.70;99.90
5848;DHT22;8756;49.29324300;8.70599800;2023-03-14T00:41:13;10.70;99.90
5848;DHT22;8756;49.29324300;8.70599800;2023-03-14T00:43:40;10.70;99.90
5848;DHT22;8756;49.29324300;8.70599800;2023-03-14T00:46:07;10.70;99.90
5848;DHT22;8756;49.29324300;8.70599800;2023-03-14T00:48:33;10.70;99.90
5848;DHT22;8756;49.29324300;8.70599800;2023-03-14T00:50:59;10.80;99.90
5848;DHT22;8756;49.29324300;8.70599800;2023-03-14T00:53:24;10.70;99.90
5848;DHT22;8756;49.29324300;8.70599800;2023-03-14T00:55:50;10.80;99.90
5848;DHT22;8756;49.29324300;8.70599800;2023-03-14T00:58:17;10.80;99.90
5848;DHT22;8756;49.29324300;8.70599800;2023-03-14T01:00:44;10.80;99.90
5848;DHT22;8756;49.29324300;8.70599800;2023-03-14T01:03:11;10.80;99.90
5848;DHT22;8756;49.29324300;8.70599800;2023-03-14T01:05:39;10.80;99.90
5848;DHT22;8756;49.29324300;8.70599800;2023-03-14T01:08:05;10.90;99.90
5848;DHT22;8756;49.29324300;8.70599800;2023-03-14T01:10:33;10.80;99.90
5848;DHT22;8756;49.29324300;8.70599800;2023-03-14T01:12:59;10.80;99.90
5848;DHT22;8756;49.29324300;8.70599800;2023-03-14T01:15:25;10.90;99.90
5848;DHT22;8756;49.29324300;8.70599800;2023-03-14T01:17:51;10.90;99.90
5848;DHT22;8756;49.29324300;8.70599800;2023-03-14T01:20:17;10.90;99.90
5848;DHT22;8756;49.29324300;8.70599800;2023-03-14T01:22:44;10.90;99.90
5848;DHT22;8756;49.29324300;8.70599800;2023-03-14T01:25:13;10.90;99.90
5848;DHT22;8756;49.29324300;8.70599800;2023-03-14T01:27:40;10.90;99.90
5848;DHT22;8756;49.29324300;8.70599800;2023-03-14T01:30:07;11.00;99.90
5848;DHT22;8756;49.29324300;8.70599800;2023-03-14T01:32:33;11.00;99.90
5848;DHT22;8756;49.29324300;8.70599800;2023-03-14T01:34:59;11.00;99.90
5848;DHT22;8756;49.29324300;8.70599800;2023-03-14T01:37:25;11.00;99.90
5848;DHT22;8756;49.29324300;8.70599800;2023-03-14T01:39:51;11.00;99.90
5848;DHT22;8756;49.29324300;8.70599800;2023-03-14T01:42:17;11.00;99.90
5848;DHT22;8756;49.29324300;8.70599800;2023-03-14T01:44:54;11.00;99.90
5848;DHT22;8756;49.29324300;8.70599800;2023-03-14T01:47:23;11.00;99.90
5848;DHT22;8756;49.29324300;8.70599800;2023-03-14T01:50:15;11.00;99.90
5848;DHT22;8756;49.29324300;8.70599800;2023-03-14T01:52:44;11.00;99.90
5848;DHT22;8756;49.29324300;8.70599800;2023-03-14T01:55:17;11.10;99.90
5848;DHT22;8756;49.29324300;8.70599800;2023-03-14T01:57:54;11.10;99.90
5848;DHT22;8756;49.29324300;8.70599800;2023-03-14T02:00:24;11.00;99.90
5848;DHT22;8756;49.29324300;8.70599800;2023-03-14T02:02:53;11.00;99.90
5848;DHT22;8756;49.29324300;8.70599800;2023-03-14T02:05:28;11.00;99.90
5848;DHT22;8756;49.29324300;8.70599800;2023-03-14T02:07:59;11.00;99.90
5848;DHT22;8756;49.29324300;8.70599800;2023-03-14T02:10:33;11.00;99.90
5848;DHT22;8756;49.29324300;8.70599800;2023-03-14T02:13:03;11.00;99.90
5848;DHT22;8756;49.29324300;8.70599800;2023-03-14T02:15:30;10.90;99.90
5848;DHT22;8756;49.29324300;8.70599800;2023-03-14T02:17:57;10.90;99.90
5848;DHT22;8756;49.29324300;8.70599800;2023-03-14T02:20:41;10.90;99.90
5848;DHT22;8756;49.29324300;8.70599800;2023-03-14T02:23:17;10.80;99.90
5848;DHT22;8756;49.29324300;8.70599800;2023-03-14T02:26:10;10.80;99.90
5848;DHT22;8756;49.29324300;8.70599800;2023-03-14T02:28:39;10.80;99.90
5848;DHT22;8756;49.29324300;8.70599800;2023-03-14T02:31:05;10.80;99.90
5848;DHT22;8756;49.29324300;8.70599800;2023-03-14T02:33:31;10.80;99.90
5848;DHT22;8756;49.29324300;8.70599800;2023-03-14T02:36:02;10.70;99.90
5848;DHT22;8756;49.29324300;8.70599800;2023-03-14T02:41:34;10.70;99.90
5848;DHT22;8756;49.29324300;8.70599800;2023-03-14T02:43:59;10.70;99.90
5848;DHT22;8756;49.29324300;8.70599800;2023-03-14T02:46:25;10.70;99.90
5848;DHT22;8756;49.29324300;8.70599800;2023-03-14T02:49:07;10.70;99.90
5848;DHT22;8756;49.29324300;8.70599800;2023-03-14T02:51:34;10.70;99.90
5848;DHT22;8756;49.29324300;8.70599800;2023-03-14T02:54:00;10.60;99.90
5848;DHT22;8756;49.29324300;8.70599800;2023-03-14T02:56:26;10.60;99.90
5848;DHT22;8756;49.29324300;8.70599800;2023-03-14T02:58:52;10.60;99.90
5848;DHT22;8756;49.29324300;8.70599800;2023-03-14T03:01:17;10.60;99.90
5848;DHT22;8756;49.29324300;8.70599800;2023-03-14T03:03:43;10.60;99.90
5848;DHT22;8756;49.29324300;8.70599800;2023-03-14T03:06:09;10.60;99.90
5848;DHT22;8756;49.29324300;8.70599800;2023-03-14T03:08:34;10.60;99.90
5848;DHT22;8756;49.29324300;8.70599800;2023-03-14T03:11:00;10.60;99.90
5848;DHT22;8756;49.29324300;8.70599800;2023-03-14T03:13:26;10.60;99.90
5848;DHT22;8756;49.29324300;8.70599800;2023-03-14T03:15:52;10.60;99.90
5848;DHT22;8756;49.29324300;8.70599800;2023-03-14T03:18:18;10.50;99.90
5848;DHT22;8756;49.29324300;8.70599800;2023-03-14T03:20:43;10.60;99.90
5848;DHT22;8756;49.29324300;8.70599800;2023-03-14T03:23:09;10.50;99.90
5848;DHT22;8756;49.29324300;8.70599800;2023-03-14T03:25:35;10.50;99.90
5848;DHT22;8756;49.29324300;8.70599800;2023-03-14T03:28:01;10.50;99.90
5848;DHT22;8756;49.29324300;8.70599800;2023-03-14T03:30:27;10.40;99.90
5848;DHT22;8756;49.29324300;8.70599800;2023-03-14T03:32:53;10.40;99.90
5848;DHT22;8756;49.29324300;8.70599800;2023-03-14T03:35:18;10.50;99.90
5848;DHT22;8756;49.29324300;8.70599800;2023-03-14T03:37:44;10.50;99.90
5848;DHT22;8756;49.29324300;8.70599800;2023-03-14T03:40:10;10.40;99.90
5848;DHT22;8756;49.29324300;8.70599800;2023-03-14T03:42:36;10.40;99.90
5848;DHT22;8756;49.29324300;8.70599800;2023-03-14T03:45:03;10.40;99.90
5848;DHT22;8756;49.29324300;8.70599800;2023-03-14T03:47:30;10.40;99.90
5848;DHT22;8756;49.29324300;8.70599800;2023-03-14T03:49:56;10.40;99.90
5848;DHT22;8756;49.29324300;8.70599800;2023-03-14T03:52:22;10.40;99.90
5848;DHT22;8756;49.29324300;8.70599800;2023-03-14T03:54:48;10.30;99.90
5848;DHT22;8756;49.29324300;8.70599800;2023-03-14T03:57:13;10.30;99.90
5848;DHT22;8756;49.29324300;8.70599800;2023-03-14T03:59:39;10.30;99.90
5848;DHT22;8756;49.29324300;8.70599800;2023-03-14T04:02:06;10.30;99.90
5848;DHT22;8756;49.29324300;8.70599800;2023-03-14T04:04:32;10.30;99.90
5848;DHT22;8756;49.29324300;8.70599800;2023-03-14T04:07:01;10.30;99.90
5848;DHT22;8756;49.29324300;8.70599800;2023-03-14T04:09:26;10.30;99.90
5848;DHT22;8756;49.29324300;8.70599800;2023-03-14T04:11:52;10.20;99.90
5848;DHT22;8756;49.29324300;8.70599800;2023-03-14T04:14:18;10.20;99.90
5848;DHT22;8756;49.29324300;8.70599800;2023-03-14T04:16:43;10.20;99.90
5848;DHT22;8756;49.29324300;8.70599800;2023-03-14T04:19:09;10.20;99.90
5848;DHT22;8756;49.29324300;8.70599800;2023-03-14T04:21:35;10.20;99.90
5848;DHT22;8756;49.29324300;8.70599800;2023-03-14T04:24:01;10.20;99.90
5848;DHT22;8756;49.29324300;8.70599800;2023-03-14T04:26:26;10.20;99.90
5848;DHT22;8756;49.29324300;8.70599800;2023-03-14T04:28:52;10.20;99.90
5848;DHT22;8756;49.29324300;8.70599800;2023-03-14T04:31:20;10.30;99.90
5848;DHT22;8756;49.29324300;8.70599800;2023-03-14T04:33:46;10.30;99.90
5848;DHT22;8756;49.29324300;8.70599800;2023-03-14T04:36:13;10.30;99.90
5848;DHT22;8756;49.29324300;8.70599800;2023-03-14T04:38:39;10.30;99.90
5848;DHT22;8756;49.29324300;8.70599800;2023-03-14T04:41:06;10.30;99.90
5848;DHT22;8756;49.29324300;8.70599800;2023-03-14T04:43:32;10.30;99.90
5848;DHT22;8756;49.29324300;8.70599800;2023-03-14T04:45:58;10.30;99.90
5848;DHT22;8756;49.29324300;8.70599800;2023-03-14T04:48:25;10.30;99.90
5848;DHT22;8756;49.29324300;8.70599800;2023-03-14T04:50:51;10.30;99.90
5848;DHT22;8756;49.29324300;8.70599800;2023-03-14T04:53:18;10.20;99.90
5848;DHT22;8756;49.29324300;8.70599800;2023-03-14T04:55:54;10.20;99.90
5848;DHT22;8756;49.29324300;8.70599800;2023-03-14T04:58:22;10.20;99.90
5848;DHT22;8756;49.29324300;8.70599800;2023-03-14T05:00:48;10.20;99.90
5848;DHT22;8756;49.29324300;8.70599800;2023-03-14T05:03:15;10.20;99.90
5848;DHT22;8756;49.29324300;8.70599800;2023-03-14T05:05:42;10.20;99.90
5848;DHT22;8756;49.29324300;8.70599800;2023-03-14T05:08:08;10.20;99.90
5848;DHT22;8756;49.29324300;8.70599800;2023-03-14T05:10:33;10.20;99.90
5848;DHT22;8756;49.29324300;8.70599800;2023-03-14T05:12:59;10.20;99.90
5848;DHT22;8756;49.29324300;8.70599800;2023-03-14T05:15:25;10.20;99.90
5848;DHT22;8756;49.29324300;8.70599800;2023-03-14T05:17:51;10.20;99.90
5848;DHT22;8756;49.29324300;8.70599800;2023-03-14T05:20:17;10.20;99.90
5848;DHT22;8756;49.29324300;8.70599800;2023-03-14T05:22:43;10.20;99.90
5848;DHT22;8756;49.29324300;8.70599800;2023-03-14T05:25:09;10.20;99.90
5848;DHT22;8756;49.29324300;8.70599800;2023-03-14T05:27:35;10.30;99.90
5848;DHT22;8756;49.29324300;8.70599800;2023-03-14T05:30:01;10.30;99.90
5848;DHT22;8756;49.29324300;8.70599800;2023-03-14T05:32:28;10.30;99.90
5848;DHT22;8756;49.29324300;8.70599800;2023-03-14T05:34:54;10.30;99.90
5848;DHT22;8756;49.29324300;8.70599800;2023-03-14T05:37:23;10.30;99.90
5848;DHT22;8756;49.29324300;8.70599800;2023-03-14T05:39:50;10.30;99.90
5848;DHT22;8756;49.29324300;8.70599800;2023-03-14T05:42:16;10.30;99.90
5848;DHT22;8756;49.29324300;8.70599800;2023-03-14T05:44:41;10.30;99.90
5848;DHT22;8756;49.29324300;8.70599800;2023-03-14T05:47:07;10.30;99.90
5848;DHT22;8756;49.29324300;8.70599800;2023-03-14T05:49:33;10.20;99.90
5848;DHT22;8756;49.29324300;8.70599800;2023-03-14T05:51:59;10.20;99.90
5848;DHT22;8756;49.29324300;8.70599800;2023-03-14T05:54:24;10.30;99.90
5848;DHT22;8756;49.29324300;8.70599800;2023-03-14T05:56:50;10.20;99.90
5848;DHT22;8756;49.29324300;8.70599800;2023-03-14T05:59:16;10.30;99.90
5848;DHT22;8756;49.29324300;8.70599800;2023-03-14T06:01:41;10.20;99.90
5848;DHT22;8756;49.29324300;8.70599800;2023-03-14T06:04:07;10.30;99.90
5848;DHT22;8756;49.29324300;8.70599800;2023-03-14T06:06:33;10.30;99.90
5848;DHT22;8756;49.29324300;8.70599800;2023-03-14T06:08:58;10.30;99.90
5848;DHT22;8756;49.29324300;8.70599800;2023-03-14T06:11:24;10.30;99.90
5848;DHT22;8756;49.29324300;8.70599800;2023-03-14T06:13:50;10.30;99.90
5848;DHT22;8756;49.29324300;8.70599800;2023-03-14T06:16:16;10.30;99.90
5848;DHT22;8756;49.29324300;8.70599800;2023-03-14T06:18:42;10.30;99.90
5848;DHT22;8756;49.29324300;8.70599800;2023-03-14T06:21:08;10.30;99.90
5848;DHT22;8756;49.29324300;8.70599800;2023-03-14T06:23:34;10.30;99.90
5848;DHT22;8756;49.29324300;8.70599800;2023-03-14T06:25:59;10.30;99.90
5848;DHT22;8756;49.29324300;8.70599800;2023-03-14T06:28:26;10.40;99.90
5848;DHT22;8756;49.29324300;8.70599800;2023-03-14T06:30:52;10.40;99.90
5848;DHT22;8756;49.29324300;8.70599800;2023-03-14T06:33:17;10.40;99.90
5848;DHT22;8756;49.29324300;8.70599800;2023-03-14T06:35:43;10.40;99.90
5848;DHT22;8756;49.29324300;8.70599800;2023-03-14T06:38:09;10.40;99.90
5848;DHT22;8756;49.29324300;8.70599800;2023-03-14T06:40:35;10.40;99.90
5848;DHT22;8756;49.29324300;8.70599800;2023-03-14T06:43:00;10.40;99.90
5848;DHT22;8756;49.29324300;8.70599800;2023-03-14T06:45:26;10.40;99.90
5848;DHT22;8756;49.29324300;8.70599800;2023-03-14T06:47:52;10.40;99.90
5848;DHT22;8756;49.29324300;8.70599800;2023-03-14T06:50:17;10.40;99.90
5848;DHT22;8756;49.29324300;8.70599800;2023-03-14T06:52:43;10.40;99.90
5848;DHT22;8756;49.29324300;8.70599800;2023-03-14T06:55:13;10.50;99.90
5848;DHT22;8756;49.29324300;8.70599800;2023-03-14T06:57:40;10.50;99.90
5848;DHT22;8756;49.29324300;8.70599800;2023-03-14T07:00:06;10.50;99.90
5848;DHT22;8756;49.29324300;8.70599800;2023-03-14T07:02:32;10.50;99.90
5848;DHT22;8756;49.29324300;8.70599800;2023-03-14T07:04:58;10.50;99.90
5848;DHT22;8756;49.29324300;8.70599800;2023-03-14T07:07:24;10.50;99.90
5848;DHT22;8756;49.29324300;8.70599800;2023-03-14T07:09:50;10.50;99.90
5848;DHT22;8756;49.29324300;8.70599800;2023-03-14T07:12:15;10.50;99.90
5848;DHT22;8756;49.29324300;8.70599800;2023-03-14T07:14:41;10.50;99.90
5848;DHT22;8756;49.29324300;8.70599800;2023-03-14T07:17:07;10.50;99.90
5848;DHT22;8756;49.29324300;8.70599800;2023-03-14T07:19:32;10.50;99.90
5848;DHT22;8756;49.29324300;8.70599800;2023-03-14T07:21:58;10.50;99.90
5848;DHT22;8756;49.29324300;8.70599800;2023-03-14T07:24:24;10.50;99.90
5848;DHT22;8756;49.29324300;8.70599800;2023-03-14T07:26:49;10.50;99.90
5848;DHT22;8756;49.29324300;8.70599800;2023-03-14T07:29:15;10.50;99.90
5848;DHT22;8756;49.29324300;8.70599800;2023-03-14T07:31:41;10.50;99.90
5848;DHT22;8756;49.29324300;8.70599800;2023-03-14T07:34:06;10.50;99.90
5848;DHT22;8756;49.29324300;8.70599800;2023-03-14T07:36:32;10.50;99.90
5848;DHT22;8756;49.29324300;8.70599800;2023-03-14T07:38:58;10.50;99.90
5848;DHT22;8756;49.29324300;8.70599800;2023-03-14T07:41:23;10.50;99.90
5848;DHT22;8756;49.29324300;8.70599800;2023-03-14T07:43:49;10.60;99.90
5848;DHT22;8756;49.29324300;8.70599800;2023-03-14T07:46:15;10.60;99.90
5848;DHT22;8756;49.29324300;8.70599800;2023-03-14T07:48:41;10.60;99.90
5848;DHT22;8756;49.29324300;8.70599800;2023-03-14T07:51:07;10.60;99.90
5848;DHT22;8756;49.29324300;8.70599800;2023-03-14T07:53:33;10.60;99.90
5848;DHT22;8756;49.29324300;8.70599800;2023-03-14T07:55:59;10.60;99.90
5848;DHT22;8756;49.29324300;8.70599800;2023-03-14T07:58:25;10.70;99.90
5848;DHT22;8756;49.29324300;8.70599800;2023-03-14T08:00:51;10.70;99.90
5848;DHT22;8756;49.29324300;8.70599800;2023-03-14T08:03:18;10.70;99.90
5848;DHT22;8756;49.29324300;8.70599800;2023-03-14T08:05:46;10.70;99.90
5848;DHT22;8756;49.29324300;8.70599800;2023-03-14T08:08:13;10.80;99.90
5848;DHT22;8756;49.29324300;8.70599800;2023-03-14T08:10:38;10.80;99.90
5848;DHT22;8756;49.29324300;8.70599800;2023-03-14T08:13:04;10.80;99.90
5848;DHT22;8756;49.29324300;8.70599800;2023-03-14T08:15:30;10.80;99.90
5848;DHT22;8756;49.29324300;8.70599800;2023-03-14T08:17:56;10.80;99.90
5848;DHT22;8756;49.29324300;8.70599800;2023-03-14T08:20:24;10.90;99.90
5848;DHT22;8756;49.29324300;8.70599800;2023-03-14T08:22:51;10.90;99.90
5848;DHT22;8756;49.29324300;8.70599800;2023-03-14T08:25:17;10.90;99.90
5848;DHT22;8756;49.29324300;8.70599800;2023-03-14T08:27:44;10.90;99.90
5848;DHT22;8756;49.29324300;8.70599800;2023-03-14T08:30:12;11.00;99.90
5848;DHT22;8756;49.29324300;8.70599800;2023-03-14T08:32:39;11.00;99.90
5848;DHT22;8756;49.29324300;8.70599800;2023-03-14T08:35:05;11.00;99.90
5848;DHT22;8756;49.29324300;8.70599800;2023-03-14T08:37:32;11.10;99.90
5848;DHT22;8756;49.29324300;8.70599800;2023-03-14T08:39:58;11.10;99.90
5848;DHT22;8756;49.29324300;8.70599800;2023-03-14T08:42:24;11.10;99.90
5848;DHT22;8756;49.29324300;8.70599800;2023-03-14T08:44:51;11.10;99.90
5848;DHT22;8756;49.29324300;8.70599800;2023-03-14T08:47:18;11.20;99.90
5848;DHT22;8756;49.29324300;8.70599800;2023-03-14T08:49:44;11.20;99.90
5848;DHT22;8756;49.29324300;8.70599800;2023-03-14T08:52:09;11.20;99.90
5848;DHT22;8756;49.29324300;8.70599800;2023-03-14T08:54:35;11.20;99.90
5848;DHT22;8756;49.29324300;8.70599800;2023-03-14T08:57:01;11.20;99.90
5848;DHT22;8756;49.29324300;8.70599800;2023-03-14T08:59:27;11.20;99.90
5848;DHT22;8756;49.29324300;8.70599800;2023-03-14T09:01:52;11.20;99.90
5848;DHT22;8756;49.29324300;8.70599800;2023-03-14T09:04:19;11.20;99.90
5848;DHT22;8756;49.29324300;8.70599800;2023-03-14T09:06:46;11.20;99.90
5848;DHT22;8756;49.29324300;8.70599800;2023-03-14T09:09:11;11.20;99.90
5848;DHT22;8756;49.29324300;8.70599800;2023-03-14T09:11:39;11.30;99.90
5848;DHT22;8756;49.29324300;8.70599800;2023-03-14T09:14:05;11.30;99.90
5848;DHT22;8756;49.29324300;8.70599800;2023-03-14T09:16:31;11.20;99.90
5848;DHT22;8756;49.29324300;8.70599800;2023-03-14T09:18:58;11.20;99.90
5848;DHT22;8756;49.29324300;8.70599800;2023-03-14T09:21:26;11.20;99.90
5848;DHT22;8756;49.29324300;8.70599800;2023-03-14T09:23:52;11.20;99.90
5848;DHT22;8756;49.29324300;8.70599800;2023-03-14T09:26:19;11.20;99.90
5848;DHT22;8756;49.29324300;8.70599800;2023-03-14T09:28:45;11.10;99.90
5848;DHT22;8756;49.29324300;8.70599800;2023-03-14T09:31:11;11.10;99.90
5848;DHT22;8756;49.29324300;8.70599800;2023-03-14T09:33:38;11.10;99.90
5848;DHT22;8756;49.29324300;8.70599800;2023-03-14T09:36:04;11.10;99.90
5848;DHT22;8756;49.29324300;8.70599800;2023-03-14T09:38:31;11.20;99.90
5848;DHT22;8756;49.29324300;8.70599800;2023-03-14T09:40:59;11.20;99.90
5848;DHT22;8756;49.29324300;8.70599800;2023-03-14T09:43:29;11.20;99.90
5848;DHT22;8756;49.29324300;8.70599800;2023-03-14T09:45:58;11.20;99.90
5848;DHT22;8756;49.29324300;8.70599800;2023-03-14T09:48:30;11.20;99.90
5848;DHT22;8756;49.29324300;8.70599800;2023-03-14T09:51:00;11.30;99.90
5848;DHT22;8756;49.29324300;8.70599800;2023-03-14T09:53:40;11.30;99.90
5848;DHT22;8756;49.29324300;8.70599800;2023-03-14T09:56:23;11.30;99.90
5848;DHT22;8756;49.29324300;8.70599800;2023-03-14T09:58:54;11.40;99.90
5848;DHT22;8756;49.29324300;8.70599800;2023-03-14T10:01:26;11.40;99.90
5848;DHT22;8756;49.29324300;8.70599800;2023-03-14T10:04:00;11.50;99.90
5848;DHT22;8756;49.29324300;8.70599800;2023-03-14T10:06:30;11.50;99.90
5848;DHT22;8756;49.29324300;8.70599800;2023-03-14T10:08:56;11.50;99.90
5848;DHT22;8756;49.29324300;8.70599800;2023-03-14T10:11:22;11.60;99.90
5848;DHT22;8756;49.29324300;8.70599800;2023-03-14T10:14:09;11.60;99.90
5848;DHT22;8756;49.29324300;8.70599800;2023-03-14T10:16:42;11.60;99.90
5848;DHT22;8756;49.29324300;8.70599800;2023-03-14T10:19:14;11.60;99.90
5848;DHT22;8756;49.29324300;8.70599800;2023-03-14T10:21:43;11.60;99.90
5848;DHT22;8756;49.29324300;8.70599800;2023-03-14T10:24:36;11.50;99.90
5848;DHT22;8756;49.29324300;8.70599800;2023-03-14T10:27:05;11.50;99.90
5848;DHT22;8756;49.29324300;8.70599800;2023-03-14T10:30:00;11.40;99.90
5848;DHT22;8756;49.29324300;8.70599800;2023-03-14T10:32:33;11.40;99.90
5848;DHT22;8756;49.29324300;8.70599800;2023-03-14T10:37:56;11.30;99.90
5848;DHT22;8756;49.29324300;8.70599800;2023-03-14T10:40:47;11.20;99.90
5848;DHT22;8756;49.29324300;8.70599800;2023-03-14T10:43:17;11.20;99.90
5848;DHT22;8756;49.29324300;8.70599800;2023-03-14T10:46:13;11.20;99.90
5848;DHT22;8756;49.29324300;8.70599800;2023-03-14T10:48:43;11.10;99.90
5848;DHT22;8756;49.29324300;8.70599800;2023-03-14T10:53:46;11.10;99.90
5848;DHT22;8756;49.29324300;8.70599800;2023-03-14T10:56:19;11.10;99.90
5848;DHT22;8756;49.29324300;8.70599800;2023-03-14T10:58:50;11.10;99.90
5848;DHT22;8756;49.29324300;8.70599800;2023-03-14T11:01:32;11.10;99.90
5848;DHT22;8756;49.29324300;8.70599800;2023-03-14T11:07:40;11.00;99.90
5848;DHT22;8756;49.29324300;8.70599800;2023-03-14T11:10:38;10.90;99.90
5848;DHT22;8756;49.29324300;8.70599800;2023-03-14T11:16:03;10.80;99.90
5848;DHT22;8756;49.29324300;8.70599800;2023-03-14T11:24:35;10.70;99.90
5848;DHT22;8756;49.29324300;8.70599800;2023-03-14T11:27:22;10.60;99.90
5848;DHT22;8756;49.29324300;8.70599800;2023-03-14T11:30:13;10.60;99.90
5848;DHT22;8756;49.29324300;8.70599800;2023-03-14T11:33:08;10.50;99.90
5848;DHT22;8756;49.29324300;8.70599800;2023-03-14T11:36:03;10.50;99.90
5848;DHT22;8756;49.29324300;8.70599800;2023-03-14T11:38:43;10.40;99.90
5848;DHT22;8756;49.29324300;8.70599800;2023-03-14T11:41:26;10.40;99.90
5848;DHT22;8756;49.29324300;8.70599800;2023-03-14T11:43:59;10.40;99.90
5848;DHT22;8756;49.29324300;8.70599800;2023-03-14T11:46:33;10.40;99.90
5848;DHT22;8756;49.29324300;8.70599800;2023-03-14T11:49:06;10.30;99.90
5848;DHT22;8756;49.29324300;8.70599800;2023-03-14T11:51:42;10.30;99.90
5848;DHT22;8756;49.29324300;8.70599800;2023-03-14T11:54:24;10.30;99.90
5848;DHT22;8756;49.29324300;8.70599800;2023-03-14T11:57:23;10.30;99.90
5848;DHT22;8756;49.29324300;8.70599800;2023-03-14T12:00:00;10.30;99.90
5848;DHT22;8756;49.29324300;8.70599800;2023-03-14T12:05:30;10.30;99.90
5848;DHT22;8756;49.29324300;8.70599800;2023-03-14T12:08:39;10.20;99.90
5848;DHT22;8756;49.29324300;8.70599800;2023-03-14T12:11:18;10.20;99.90
5848;DHT22;8756;49.29324300;8.70599800;2023-03-14T12:13:52;10.10;99.90
5848;DHT22;8756;49.29324300;8.70599800;2023-03-14T12:18:51;10.10;99.90
5848;DHT22;8756;49.29324300;8.70599800;2023-03-14T12:21:18;10.00;99.90
5848;DHT22;8756;49.29324300;8.70599800;2023-03-14T12:23:55;10.00;99.90
5848;DHT22;8756;49.29324300;8.70599800;2023-03-14T12:26:24;10.00;99.90
5848;DHT22;8756;49.29324300;8.70599800;2023-03-14T12:34:02;9.90;99.90
5848;DHT22;8756;49.29324300;8.70599800;2023-03-14T12:36:59;9.90;99.90
5848;DHT22;8756;49.29324300;8.70599800;2023-03-14T12:42:54;9.70;99.90
5848;DHT22;8756;49.29324300;8.70599800;2023-03-14T12:45:35;9.50;99.90
5848;DHT22;8756;49.29324300;8.70599800;2023-03-14T12:50:44;9.40;99.90
5848;DHT22;8756;49.29324300;8.70599800;2023-03-14T12:53:54;9.30;99.90
5848;DHT22;8756;49.29324300;8.70599800;2023-03-14T12:59:45;9.10;99.90
5848;DHT22;8756;49.29324300;8.70599800;2023-03-14T13:02:28;9.00;99.90
5848;DHT22;8756;49.29324300;8.70599800;2023-03-14T13:05:13;8.90;99.90
5848;DHT22;8756;49.29324300;8.70599800;2023-03-14T13:10:19;8.90;99.90
5848;DHT22;8756;49.29324300;8.70599800;2023-03-14T13:12:57;9.00;99.90
5848;DHT22;8756;49.29324300;8.70599800;2023-03-14T13:15:47;9.10;99.90
5848;DHT22;8756;49.29324300;8.70599800;2023-03-14T13:18:26;9.30;99.90
5848;DHT22;8756;49.29324300;8.70599800;2023-03-14T13:21:17;9.40;99.90
5848;DHT22;8756;49.29324300;8.70599800;2023-03-14T13:24:07;9.60;99.90
5848;DHT22;8756;49.29324300;8.70599800;2023-03-14T13:26:45;9.70;99.90
5848;DHT22;8756;49.29324300;8.70599800;2023-03-14T13:31:54;9.90;99.90
5848;DHT22;8756;49.29324300;8.70599800;2023-03-14T13:34:31;10.00;99.90
5848;DHT22;8756;49.29324300;8.70599800;2023-03-14T13:36:58;10.00;99.90
5848;DHT22;8756;49.29324300;8.70599800;2023-03-14T13:39:26;10.10;99.90
5848;DHT22;8756;49.29324300;8.70599800;2023-03-14T13:41:58;10.10;99.90
5848;DHT22;8756;49.29324300;8.70599800;2023-03-14T13:44:36;10.00;99.90
5848;DHT22;8756;49.29324300;8.70599800;2023-03-14T13:47:05;10.00;99.90
5848;DHT22;8756;49.29324300;8.70599800;2023-03-14T13:49:37;9.90;99.90
5848;DHT22;8756;49.29324300;8.70599800;2023-03-14T13:52:03;9.80;99.90
5848;DHT22;8756;49.29324300;8.70599800;2023-03-14T13:54:45;9.70;99.90
5848;DHT22;8756;49.29324300;8.70599800;2023-03-14T13:57:11;9.60;99.90
5848;DHT22;8756;49.29324300;8.70599800;2023-03-14T13:59:36;9.60;99.90
5848;DHT22;8756;49.29324300;8.70599800;2023-03-14T14:02:15;9.60;99.90
5848;DHT22;8756;49.29324300;8.70599800;2023-03-14T14:04:40;9.60;99.90
5848;DHT22;8756;49.29324300;8.70599800;2023-03-14T14:07:13;9.60;99.90
5848;DHT22;8756;49.29324300;8.70599800;2023-03-14T14:09:47;9.60;99.90
5848;DHT22;8756;49.29324300;8.70599800;2023-03-14T14:12:18;9.70;99.90
5848;DHT22;8756;49.29324300;8.70599800;2023-03-14T14:15:06;9.70;99.90
5848;DHT22;8756;49.29324300;8.70599800;2023-03-14T14:17:53;9.70;99.90
5848;DHT22;8756;49.29324300;8.70599800;2023-03-14T14:20:38;9.70;99.90
5848;DHT22;8756;49.29324300;8.70599800;2023-03-14T14:23:10;9.70;99.90
5848;DHT22;8756;49.29324300;8.70599800;2023-03-14T14:25:40;9.70;99.90
5848;DHT22;8756;49.29324300;8.70599800;2023-03-14T14:28:23;9.60;99.90
5848;DHT22;8756;49.29324300;8.70599800;2023-03-14T14:33:45;9.60;99.90
5848;DHT22;8756;49.29324300;8.70599800;2023-03-14T14:36:23;9.60;99.90
5848;DHT22;8756;49.29324300;8.70599800;2023-03-14T14:39:18;9.70;99.90
5848;DHT22;8756;49.29324300;8.70599800;2023-03-14T14:41:48;9.70;99.90
5848;DHT22;8756;49.29324300;8.70599800;2023-03-14T14:44:18;9.80;99.90
5848;DHT22;8756;49.29324300;8.70599800;2023-03-14T14:46:47;10.00;99.90
5848;DHT22;8756;49.29324300;8.70599800;2023-03-14T14:49:14;10.10;99.90
5848;DHT22;8756;49.29324300;8.70599800;2023-03-14T14:51:47;10.20;99.90